Time;durP1;ratioP1;P1;durP2;ratioP2;P2;SDS_P1;SDS_P2;PMS_P1;PMS_P2;Temp;Humidity;BMP_temperature;BMP_pressure;BME280_temperature;BME280_humidity;BME280_pressure;Samples;Min_cycle;Max_cycle;Signal;HPM_P1;HPM_P2
2022/06/15 00:02:30;;;;;;;;;;;;;;;13.33;76.95;99321.69;8401733;28;19960;-72
2022/06/15 00:06:36;;;;;;;;;;;;;;;13.20;77.10;99326.25;8403135;28;19942;-73
2022/06/15 00:10:39;;;;;;;;;;;;;;;13.02;77.33;99319.53;8393722;28;19928;-73
2022/06/15 00:14:40;;;;;;;;;;;;;;;12.99;78.14;99314.38;8407723;28;19959;-73
2022/06/15 00:18:44;;;;;;;;;;;;;;;12.96;78.58;99308.34;8395119;28;19971;-72
2022/06/15 00:22:46;;;;;;;;;;;;;;;12.86;78.53;99304.16;8408274;28;19927;-72
2022/06/15 00:26:47;;;;;;;;;;;;;;;12.83;78.63;99306.81;8401037;28;19928;-72
2022/06/15 00:30:50;;;;;;;;;;;;;;;12.79;78.92;99305.13;8391505;28;19960;-72
2022/06/15 00:34:59;;;;;;;;;;;;;;;12.69;79.69;99300.03;8402676;28;20408;-72
2022/06/15 00:39:00;;;;;;;;;;;;;;;12.68;79.95;99302.69;8402936;28;20023;-72
2022/06/15 00:43:02;;;;;;;;;;;;;;;12.60;79.52;99297.59;8402218;28;19939;-72
2022/06/15 00:47:07;;;;;;;;;;;;;;;12.55;79.96;99296.75;8393138;28;19974;-72
2022/06/15 00:51:09;;;;;;;;;;;;;;;12.50;80.09;99288.16;8399068;28;19928;-72
2022/06/15 00:55:21;;;;;;;;;;;;;;;12.43;80.08;99285.69;8398383;28;20303;-72
2022/06/15 00:59:24;;;;;;;;;;;;;;;12.33;79.91;99282.31;8403870;28;19978;-72
2022/06/15 01:03:26;;;;;;;;;;;;;;;12.25;79.99;99284.19;8398592;28;19936;-72
2022/06/15 01:07:27;;;;;;;;;;;;;;;12.21;80.39;99290.28;8400437;28;19943;-72
2022/06/15 01:11:35;;;;;;;;;;;;;;;12.12;80.33;99290.41;8399947;28;19934;-72
2022/06/15 01:15:40;;;;;;;;;;;;;;;12.09;80.50;99297.38;8398519;28;20435;-72
2022/06/15 01:19:44;;;;;;;;;;;;;;;12.06;80.91;99301.78;8402143;28;19939;-72
2022/06/15 01:23:52;;;;;;;;;;;;;;;12.03;80.97;99297.47;8402711;28;19928;-72
2022/06/15 01:28:02;;;;;;;;;;;;;;;11.99;81.45;99297.50;8397611;28;19931;-72
2022/06/15 01:32:09;;;;;;;;;;;;;;;11.93;81.77;99305.38;8397657;28;19978;-72
2022/06/15 01:36:10;;;;;;;;;;;;;;;11.87;81.84;99295.91;8391077;28;19929;-72
2022/06/15 01:40:12;;;;;;;;;;;;;;;11.81;82.13;99295.97;8398065;28;19935;-72
2022/06/15 01:44:26;;;;;;;;;;;;;;;11.73;82.18;99289.97;8404137;28;20489;-73
2022/06/15 01:48:28;;;;;;;;;;;;;;;11.69;82.31;99294.34;8398081;28;20221;-72
2022/06/15 01:52:32;;;;;;;;;;;;;;;11.68;82.19;99294.34;8398655;28;20005;-72
2022/06/15 01:56:37;;;;;;;;;;;;;;;11.66;82.65;99285.69;8393149;28;19973;-73
2022/06/15 02:00:39;;;;;;;;;;;;;;;11.60;82.43;99297.03;8395708;28;20035;-73
2022/06/15 02:04:53;;;;;;;;;;;;;;;11.55;82.41;99292.75;8425043;28;19934;-73
2022/06/15 02:09:13;;;;;;;;;;;;;;;11.51;82.83;99289.31;8406532;28;19928;-72
2022/06/15 02:13:29;;;;;;;;;;;;;;;11.46;82.70;99296.28;8406706;28;19928;-72
2022/06/15 02:17:43;;;;;;;;;;;;;;;11.43;82.74;99298.91;8401207;28;20209;-72
2022/06/15 02:21:48;;;;;;;;;;;;;;;11.36;82.65;99294.66;8411866;28;19959;-72
2022/06/15 02:25:50;;;;;;;;;;;;;;;11.27;82.59;99295.59;8415360;28;20030;-72
2022/06/15 02:29:55;;;;;;;;;;;;;;;11.18;82.47;99290.50;8444022;27;19964;-72
2022/06/15 02:33:57;;;;;;;;;;;;;;;11.14;82.94;99291.41;8402129;28;20014;-72
2022/06/15 02:37:58;;;;;;;;;;;;;;;11.07;83.34;99287.09;8414829;28;19935;-72
2022/06/15 02:42:01;;;;;;;;;;;;;;;11.04;83.54;99281.94;8411776;28;20413;-72
2022/06/15 02:46:03;;;;;;;;;;;;;;;10.99;83.98;99283.72;8412655;28;19939;-72
2022/06/15 02:50:08;;;;;;;;;;;;;;;10.96;83.95;99284.63;8430213;28;20339;-73
2022/06/15 02:54:30;;;;;;;;;;;;;;;10.91;84.30;99275.97;8413895;28;19928;-72
2022/06/15 02:58:37;;;;;;;;;;;;;;;10.86;83.89;99283.81;8413243;28;19928;-73
2022/06/15 03:02:38;;;;;;;;;;;;;;;10.83;84.04;99281.22;8402800;28;20407;-73
2022/06/15 03:06:40;;;;;;;;;;;;;;;10.77;84.43;99280.41;8410816;28;20363;-73
2022/06/15 03:10:42;;;;;;;;;;;;;;;10.76;84.73;99287.31;8400334;28;20046;-73
2022/06/15 03:14:43;;;;;;;;;;;;;;;10.74;84.14;99283.03;8408887;28;19967;-73
2022/06/15 03:18:45;;;;;;;;;;;;;;;10.70;84.62;99283.91;8398706;28;20471;-73
2022/06/15 03:22:48;;;;;;;;;;;;;;;10.68;84.31;99278.75;8409347;28;19963;-72
2022/06/15 03:26:49;;;;;;;;;;;;;;;10.61;84.26;99279.66;8405731;28;19978;-72
2022/06/15 03:30:51;;;;;;;;;;;;;;;10.58;84.50;99282.25;8394956;28;19975;-73
2022/06/15 03:34:52;;;;;;;;;;;;;;;10.50;84.86;99289.25;8408927;28;20638;-73
2022/06/15 03:38:53;;;;;;;;;;;;;;;10.47;84.47;99294.47;8407513;28;19939;-73
2022/06/15 03:42:55;;;;;;;;;;;;;;;10.50;84.98;99291.84;8402563;28;19928;-74
2022/06/15 03:46:56;;;;;;;;;;;;;;;10.47;84.77;99305.69;8402437;28;19970;-73
2022/06/15 03:50:58;;;;;;;;;;;;;;;10.44;84.76;99304.84;8402629;28;20644;-73
2022/06/15 03:54:59;;;;;;;;;;;;;;;10.41;84.66;99304.84;8402188;28;19939;-73
2022/06/15 03:59:00;;;;;;;;;;;;;;;10.37;84.84;99304.00;8401617;28;19935;-73
2022/06/15 04:03:02;;;;;;;;;;;;;;;10.41;84.98;99303.16;8402847;28;20641;-73
2022/06/15 04:07:04;;;;;;;;;;;;;;;10.47;84.97;99313.50;8395374;28;20073;-73
2022/06/15 04:15:36;;;;;;;;;;;;;;;10.50;85.51;99320.41;8404527;28;20239;-73
2022/06/15 04:19:37;;;;;;;;;;;;;;;10.62;85.94;99317.75;8434940;27;19963;-73
2022/06/15 04:23:38;;;;;;;;;;;;;;;10.78;85.65;99327.16;8435516;27;20023;-73
2022/06/15 04:27:40;;;;;;;;;;;;;;;10.92;85.02;99323.59;8442415;27;19955;-73
2022/06/15 04:31:42;;;;;;;;;;;;;;;11.02;85.08;99323.53;8402109;28;20070;-73
2022/06/15 04:35:44;;;;;;;;;;;;;;;11.20;85.00;99327.72;8408315;28;20336;-73
2022/06/15 04:39:45;;;;;;;;;;;;;;;11.34;84.03;99325.88;8400999;28;20588;-73
2022/06/15 04:43:46;;;;;;;;;;;;;;;11.48;83.77;99324.00;8396156;28;19942;-73
2022/06/15 04:47:48;;;;;;;;;;;;;;;11.60;83.06;99335.16;8393180;28;19951;-74
2022/06/15 04:51:50;;;;;;;;;;;;;;;11.77;82.17;99330.66;8401745;28;19963;-74
2022/06/15 04:55:51;;;;;;;;;;;;;;;12.00;82.32;99326.09;8403932;28;20038;-73
2022/06/15 04:59:52;;;;;;;;;;;;;;;12.21;81.61;99330.22;8401256;28;19928;-74
2022/06/15 05:03:54;;;;;;;;;;;;;;;12.44;80.95;99337.75;8404165;28;19945;-74
2022/06/15 05:07:55;;;;;;;;;;;;;;;12.71;80.97;99331.28;8420154;28;20049;-74
2022/06/15 05:11:57;;;;;;;;;;;;;;;12.97;79.72;99334.38;8398916;28;19967;-74
2022/06/15 05:15:58;;;;;;;;;;;;;;;13.25;78.61;99332.22;8403157;28;19928;-73
2022/06/15 05:20:00;;;;;;;;;;;;;;;13.56;77.42;99326.50;8405240;28;20319;-76
2022/06/15 05:24:02;;;;;;;;;;;;;;;13.85;76.25;99332.06;8404266;28;19982;-75
2022/06/15 05:28:05;;;;;;;;;;;;;;;14.15;74.55;99327.13;8410743;28;19932;-75
2022/06/15 05:32:07;;;;;;;;;;;;;;;14.51;73.98;99328.16;8388785;28;20503;-75
2022/06/15 05:36:11;;;;;;;;;;;;;;;14.97;72.44;99328.00;8400594;28;20541;-75
2022/06/15 05:40:14;;;;;;;;;;;;;;;15.57;70.84;99324.78;8412535;28;20695;-75
2022/06/15 05:48:36;;;;;;;;;;;;;;;16.57;66.58;99325.53;8409171;28;20332;-75
2022/06/15 05:52:37;;;;;;;;;;;;;;;17.03;65.27;99332.88;8398012;28;20542;-76
2022/06/15 05:56:39;;;;;;;;;;;;;;;17.44;64.32;99328.94;8391456;28;19982;-75
2022/06/15 06:00:40;;;;;;;;;;;;;;;17.99;62.16;99334.94;8415087;28;20340;-75
2022/06/15 06:04:42;;;;;;;;;;;;;;;18.50;61.04;99333.09;8408245;28;19929;-75
2022/06/15 06:08:50;;;;;;;;;;;;;;;19.14;59.38;99334.09;8419270;28;20020;-76
2022/06/15 06:12:51;;;;;;;;;;;;;;;19.66;55.41;99337.25;8402443;28;19928;-76
2022/06/15 06:16:53;;;;;;;;;;;;;;;20.35;55.16;99334.25;8403181;28;19932;-76
2022/06/15 06:20:54;;;;;;;;;;;;;;;20.93;51.68;99335.06;8411936;28;19927;-77
2022/06/15 06:24:57;;;;;;;;;;;;;;;21.55;49.77;99333.84;8384356;28;20288;-77
2022/06/15 06:28:59;;;;;;;;;;;;;;;22.06;49.00;99339.19;8400622;28;20408;-77
2022/06/15 06:33:00;;;;;;;;;;;;;;;22.42;46.74;99339.03;8399497;28;19974;-76
2022/06/15 06:37:05;;;;;;;;;;;;;;;22.73;46.06;99347.03;8403554;28;20031;-77
2022/06/15 06:41:09;;;;;;;;;;;;;;;22.87;44.88;99346.31;8394101;28;19929;-77
2022/06/15 06:45:11;;;;;;;;;;;;;;;23.01;44.65;99346.41;8392629;28;19939;-77
2022/06/15 06:49:13;;;;;;;;;;;;;;;23.15;44.83;99351.75;8418691;28;19928;-77
2022/06/15 06:53:15;;;;;;;;;;;;;;;23.23;44.21;99356.63;8399398;28;19932;-77
2022/06/15 06:57:16;;;;;;;;;;;;;;;23.42;43.34;99353.78;8411911;28;19929;-77
2022/06/15 07:01:18;;;;;;;;;;;;;;;23.59;43.54;99355.50;8390083;28;19960;-76
2022/06/15 07:05:19;;;;;;;;;;;;;;;23.66;41.72;99352.38;8395580;28;19974;-76
2022/06/15 07:09:20;;;;;;;;;;;;;;;23.86;40.98;99358.31;8394082;28;20066;-76
2022/06/15 07:13:22;;;;;;;;;;;;;;;24.19;41.34;99355.44;8390735;28;19986;-76
2022/06/15 07:17:23;;;;;;;;;;;;;;;24.35;41.63;99358.88;8388127;28;19928;-78
2022/06/15 07:21:26;;;;;;;;;;;;;;;24.46;40.24;99372.38;8400001;28;20055;-75
2022/06/15 07:25:27;;;;;;;;;;;;;;;24.70;40.55;99364.66;8395466;28;19928;-75
2022/06/15 07:29:29;;;;;;;;;;;;;;;24.82;40.29;99371.88;8426035;28;20018;-75
2022/06/15 07:33:30;;;;;;;;;;;;;;;25.17;40.46;99371.44;8425649;27;19966;-75
2022/06/15 07:37:32;;;;;;;;;;;;;;;25.50;38.43;99363.09;8443345;27;19938;-76
2022/06/15 07:41:54;;;;;;;;;;;;;;;25.70;37.22;99365.28;8418742;28;20234;-76
2022/06/15 07:45:56;;;;;;;;;;;;;;;25.90;37.30;99355.97;8405346;28;19928;-76
2022/06/15 07:49:57;;;;;;;;;;;;;;;25.92;35.14;99353.19;8404806;28;20336;-76
2022/06/15 07:54:19;;;;;;;;;;;;;;;26.22;36.74;99356.44;8406738;28;19933;-77
2022/06/15 07:58:21;;;;;;;;;;;;;;;26.40;35.35;99365.84;8403742;28;19939;-77
2022/06/15 08:02:22;;;;;;;;;;;;;;;26.46;35.42;99351.22;8404625;28;19932;-76
2022/06/15 08:06:24;;;;;;;;;;;;;;;26.60;35.29;99352.91;8404444;28;19964;-76
2022/06/15 08:10:26;;;;;;;;;;;;;;;26.62;33.16;99353.66;8406876;28;19928;-76
2022/06/15 08:14:28;;;;;;;;;;;;;;;26.64;34.31;99354.41;8403970;28;19928;-76
2022/06/15 08:18:32;;;;;;;;;;;;;;;26.68;33.91;99346.06;8396285;28;19935;-76
2022/06/15 08:22:35;;;;;;;;;;;;;;;26.86;35.04;99343.03;8400139;28;19963;-74
2022/06/15 08:26:37;;;;;;;;;;;;;;;27.18;33.88;99343.41;8396935;28;20367;-76
2022/06/15 08:30:39;;;;;;;;;;;;;;;27.34;33.70;99338.66;8399343;28;19927;-76
2022/06/15 08:34:41;;;;;;;;;;;;;;;27.62;34.28;99332.06;8394309;28;19932;-76
2022/06/15 08:38:43;;;;;;;;;;;;;;;27.72;33.57;99326.94;8385761;28;19932;-76
2022/06/15 08:42:58;;;;;;;;;;;;;;;27.78;34.26;99332.66;8390740;28;19932;-76
2022/06/15 08:47:02;;;;;;;;;;;;;;;27.68;33.13;99335.19;8384202;28;20011;-76
2022/06/15 08:51:24;;;;;;;;;;;;;;;27.97;34.29;99345.44;8387332;28;19959;-76
2022/06/15 08:55:37;;;;;;;;;;;;;;;28.05;33.04;99342.19;8404894;28;19989;-76
2022/06/15 08:59:45;;;;;;;;;;;;;;;28.05;32.06;99347.53;8385763;28;20733;-76
2022/06/15 09:04:10;;;;;;;;;;;;;;;28.12;33.95;99340.75;8388440;28;19928;-76
2022/06/15 09:08:12;;;;;;;;;;;;;;;28.37;33.25;99337.03;8380888;28;20035;-76
2022/06/15 09:16:57;;;;;;;;;;;;;;;28.65;31.92;99328.53;8404539;28;20324;-76
2022/06/15 09:21:07;;;;;;;;;;;;;;;28.49;32.58;99325.38;8390445;28;19928;-76
2022/06/15 09:25:14;;;;;;;;;;;;;;;28.74;34.12;99332.31;8388097;28;20316;-76
2022/06/15 09:29:34;;;;;;;;;;;;;;;28.78;32.01;99325.72;8392730;28;19994;-74
2022/06/15 09:33:39;;;;;;;;;;;;;;;28.90;32.96;99332.78;8385739;28;20646;-74
2022/06/15 09:37:42;;;;;;;;;;;;;;;28.91;33.18;99339.84;8390610;28;19967;-74
2022/06/15 09:41:46;;;;;;;;;;;;;;;29.06;33.17;99333.22;8392830;28;19932;-74
2022/06/15 09:46:04;;;;;;;;;;;;;;;29.16;33.19;99334.19;8385823;28;19964;-75
2022/06/15 09:50:13;;;;;;;;;;;;;;;29.23;32.10;99339.03;8396250;28;19933;-75
2022/06/15 09:54:30;;;;;;;;;;;;;;;29.40;34.00;99335.81;8406566;28;19938;-75
2022/06/15 09:58:33;;;;;;;;;;;;;;;29.64;33.38;99327.59;8394753;28;19971;-75
2022/06/15 10:02:36;;;;;;;;;;;;;;;29.78;32.76;99328.09;8378690;28;19928;-76
2022/06/15 10:06:47;;;;;;;;;;;;;;;29.83;32.55;99327.75;8391542;28;19978;-76
2022/06/15 10:10:54;;;;;;;;;;;;;;;29.77;32.44;99314.84;8389045;28;20027;-75
2022/06/15 10:15:05;;;;;;;;;;;;;;;29.86;30.60;99322.13;8406708;28;19963;-76
2022/06/15 10:19:08;;;;;;;;;;;;;;;29.89;32.48;99319.19;8408076;28;20384;-75
2022/06/15 10:23:24;;;;;;;;;;;;;;;29.76;30.56;99322.03;8408038;28;20677;-76
2022/06/15 10:27:33;;;;;;;;;;;;;;;29.80;30.98;99317.25;8394758;28;19928;-75
2022/06/15 10:31:34;;;;;;;;;;;;;;;30.01;31.45;99318.13;8385331;28;19960;-76
2022/06/15 10:35:36;;;;;;;;;;;;;;;30.17;31.90;99319.53;8390001;28;19940;-76
2022/06/15 10:39:42;;;;;;;;;;;;;;;30.29;31.92;99321.13;8396624;28;20303;-75
2022/06/15 10:43:43;;;;;;;;;;;;;;;30.24;30.60;99316.16;8392922;28;19994;-75
2022/06/15 10:47:50;;;;;;;;;;;;;;;30.27;31.00;99323.09;8380890;28;19928;-75
2022/06/15 10:51:52;;;;;;;;;;;;;;;30.42;30.69;99312.88;8393697;28;19975;-74
2022/06/15 11:04:44;;;;;;;;;;;;;;;31.04;30.57;99303.75;8392617;28;19928;-77
2022/06/15 11:08:46;;;;;;;;;;;;;;;31.24;30.46;99294.78;8391787;28;20030;-76
2022/06/15 11:12:49;;;;;;;;;;;;;;;30.98;29.19;99294.44;8390531;28;19924;-76
2022/06/15 11:21:13;;;;;;;;;;;;;;;31.19;29.93;99295.19;8390434;28;19929;-74
2022/06/15 11:25:17;;;;;;;;;;;;;;;31.31;29.27;99287.88;8396418;28;19928;-72
2022/06/15 11:29:37;;;;;;;;;;;;;;;31.43;30.08;99289.44;8374606;28;20341;-74
2022/06/15 11:33:50;;;;;;;;;;;;;;;31.39;28.43;99284.47;8377479;28;19936;-74
2022/06/15 11:38:12;;;;;;;;;;;;;;;31.35;28.39;99283.91;8393650;28;19932;-73
2022/06/15 11:42:15;;;;;;;;;;;;;;;31.20;28.53;99282.63;8377685;28;20934;-73
2022/06/15 11:46:36;;;;;;;;;;;;;;;31.19;27.54;99280.94;8374182;28;20360;-73
2022/06/15 11:50:41;;;;;;;;;;;;;;;31.23;28.34;99285.88;8373883;28;19971;-72
2022/06/15 11:54:48;;;;;;;;;;;;;;;31.46;29.02;99280.25;8378114;28;19964;-73
2022/06/15 11:58:58;;;;;;;;;;;;;;;31.66;28.81;99275.69;8376888;28;19939;-73
2022/06/15 12:03:35;;;;;;;;;;;;;;;31.72;27.50;99270.63;8380900;28;19929;-73
2022/06/15 12:07:49;;;;;;;;;;;;;;;31.83;28.05;99266.94;8390687;28;20018;-73
2022/06/15 12:16:27;;;;;;;;;;;;;;;31.85;25.45;99264.94;8377966;28;20528;-73
2022/06/15 12:20:49;;;;;;;;;;;;;;;31.54;25.43;99259.72;8377626;28;19932;-73
2022/06/15 12:24:56;;;;;;;;;;;;;;;31.68;26.88;99263.81;8377603;28;19978;-72
2022/06/15 12:29:02;;;;;;;;;;;;;;;31.81;27.02;99263.56;8376246;28;19938;-73
2022/06/15 12:33:20;;;;;;;;;;;;;;;31.81;26.06;99252.81;8373065;28;19928;-73
2022/06/15 12:37:24;;;;;;;;;;;;;;;31.77;25.83;99254.06;8376741;28;19932;-73
2022/06/15 12:46:01;;;;;;;;;;;;;;;31.83;23.99;99250.81;8373056;28;19963;-73
2022/06/15 12:50:06;;;;;;;;;;;;;;;31.71;25.51;99252.78;8377026;28;20032;-73
2022/06/15 12:54:13;;;;;;;;;;;;;;;31.94;25.86;99261.38;8377455;28;20359;-73
2022/06/15 12:58:33;;;;;;;;;;;;;;;32.00;25.21;99255.44;8376471;28;19928;-73
2022/06/15 13:02:34;;;;;;;;;;;;;;;31.92;24.08;99266.06;8351776;28;19979;-73
2022/06/15 13:06:40;;;;;;;;;;;;;;;32.13;25.49;99260.47;8356881;28;19935;-73
2022/06/15 13:10:53;;;;;;;;;;;;;;;32.33;24.17;99251.38;8342101;28;19951;-73
2022/06/15 13:14:57;;;;;;;;;;;;;;;32.44;23.31;99253.84;8342581;28;20020;-73
2022/06/15 13:18:59;;;;;;;;;;;;;;;32.67;25.14;99251.59;8396997;28;19928;-73
2022/06/15 13:23:00;;;;;;;;;;;;;;;32.59;22.95;99242.59;8376164;28;19935;-73
2022/06/15 13:27:17;;;;;;;;;;;;;;;32.38;23.25;99249.09;8375275;28;21561;-73
2022/06/15 13:31:37;;;;;;;;;;;;;;;32.09;22.35;99242.94;8386931;28;20015;-73
2022/06/15 13:35:43;;;;;;;;;;;;;;;32.22;23.89;99245.31;8378922;28;19929;-72
2022/06/15 13:39:45;;;;;;;;;;;;;;;32.42;24.19;99241.56;8384536;28;19929;-73
2022/06/15 13:43:48;;;;;;;;;;;;;;;32.68;23.76;99244.41;8389433;28;20649;-73
2022/06/15 13:47:51;;;;;;;;;;;;;;;32.85;24.01;99246.28;8372292;28;20296;-73
2022/06/15 13:51:55;;;;;;;;;;;;;;;32.73;22.96;99242.09;8373415;28;19935;-73
2022/06/15 13:56:03;;;;;;;;;;;;;;;32.72;23.33;99240.41;8374455;28;19982;-73
2022/06/15 14:00:16;;;;;;;;;;;;;;;32.90;24.52;99237.78;8376829;28;20673;-73
2022/06/15 14:04:34;;;;;;;;;;;;;;;32.74;23.33;99230.34;8372386;28;20035;-72
2022/06/15 14:08:43;;;;;;;;;;;;;;;32.67;23.55;99224.72;8373669;28;20018;-72
2022/06/15 14:13:07;;;;;;;;;;;;;;;32.66;23.14;99222.16;8374879;28;19939;-73
2022/06/15 14:17:27;;;;;;;;;;;;;;;32.60;22.70;99220.94;8375682;28;19939;-72
2022/06/15 14:21:30;;;;;;;;;;;;;;;32.58;23.70;99225.63;8411894;27;20024;-73
2022/06/15 14:25:36;;;;;;;;;;;;;;;32.65;22.37;99221.31;8379278;28;20657;-73
2022/06/15 14:29:42;;;;;;;;;;;;;;;32.79;24.49;99221.81;8378923;28;19971;-72
2022/06/15 14:33:50;;;;;;;;;;;;;;;32.96;24.25;99221.84;8407600;27;20026;-73
2022/06/15 14:37:54;;;;;;;;;;;;;;;32.98;23.35;99225.22;8377833;28;20040;-73
2022/06/15 14:42:01;;;;;;;;;;;;;;;32.98;23.22;99216.31;8378021;28;19928;-73
2022/06/15 14:46:03;;;;;;;;;;;;;;;32.96;23.05;99204.88;8373468;28;20071;-72
2022/06/15 14:50:04;;;;;;;;;;;;;;;32.97;21.86;99201.19;8378683;28;19934;-72
2022/06/15 14:54:18;;;;;;;;;;;;;;;33.06;22.90;99208.34;8372614;28;20019;-73
2022/06/15 14:58:21;;;;;;;;;;;;;;;33.00;23.13;99206.25;8377586;28;19939;-73
2022/06/15 15:02:23;;;;;;;;;;;;;;;33.00;23.18;99212.47;8386643;28;20688;-73
2022/06/15 15:06:24;;;;;;;;;;;;;;;32.92;23.39;99209.72;8384234;28;20241;-72
2022/06/15 15:10:26;;;;;;;;;;;;;;;32.97;23.86;99207.41;8390137;28;19933;-72
2022/06/15 15:14:29;;;;;;;;;;;;;;;33.14;23.96;99200.31;8400314;28;19982;-72
2022/06/15 15:18:37;;;;;;;;;;;;;;;33.17;22.08;99196.47;8380403;28;19993;-72
2022/06/15 15:22:50;;;;;;;;;;;;;;;33.31;22.72;99201.31;8389152;28;19932;-72
2022/06/15 15:26:57;;;;;;;;;;;;;;;33.37;22.73;99203.38;8398689;28;19944;-72
2022/06/15 15:35:40;;;;;;;;;;;;;;;33.37;22.58;99199.84;8411780;28;20581;-71
2022/06/15 15:40:03;;;;;;;;;;;;;;;33.07;22.00;99188.50;8397621;28;20336;-72
2022/06/15 15:44:05;;;;;;;;;;;;;;;33.18;21.98;99195.47;8396259;28;20323;-72
2022/06/15 15:48:06;;;;;;;;;;;;;;;33.25;23.09;99188.47;8400060;28;19928;-71
2022/06/15 15:52:10;;;;;;;;;;;;;;;33.08;23.56;99183.97;8398143;28;20352;-71
2022/06/15 15:56:12;;;;;;;;;;;;;;;33.21;23.59;99177.16;8400703;28;20371;-71
2022/06/15 16:00:18;;;;;;;;;;;;;;;33.35;22.70;99178.47;8395039;28;19974;-71
2022/06/15 16:04:22;;;;;;;;;;;;;;;33.33;22.00;99175.09;8402562;28;20469;-71
2022/06/15 16:08:24;;;;;;;;;;;;;;;33.16;21.90;99166.03;8427951;27;19932;-72
2022/06/15 16:12:27;;;;;;;;;;;;;;;33.13;22.76;99165.50;8388712;28;19928;-72
2022/06/15 16:16:30;;;;;;;;;;;;;;;32.98;25.16;99159.81;8386663;28;19978;-72
2022/06/15 16:20:33;;;;;;;;;;;;;;;32.86;24.74;99164.59;8390067;28;20502;-72
2022/06/15 16:24:34;;;;;;;;;;;;;;;32.71;26.34;99164.25;8382815;28;19934;-72
2022/06/15 16:28:36;;;;;;;;;;;;;;;32.50;24.78;99169.09;8391691;28;20107;-72
2022/06/15 16:32:38;;;;;;;;;;;;;;;32.28;24.79;99164.13;8386397;28;20068;-72
2022/06/15 16:36:40;;;;;;;;;;;;;;;32.02;25.93;99159.41;8389587;28;19978;-72
2022/06/15 16:40:42;;;;;;;;;;;;;;;31.76;26.51;99156.53;8418064;28;20631;-72
2022/06/15 16:44:43;;;;;;;;;;;;;;;31.32;27.80;99154.53;8385059;28;20432;-72
2022/06/15 16:48:44;;;;;;;;;;;;;;;30.81;29.10;99153.84;8402124;28;19928;-72
2022/06/15 16:52:46;;;;;;;;;;;;;;;30.23;31.17;99153.75;8379060;28;20341;-71
2022/06/15 16:56:48;;;;;;;;;;;;;;;29.83;31.43;99160.91;8382992;28;20351;-73
2022/06/15 17:00:50;;;;;;;;;;;;;;;29.50;31.66;99157.50;8379816;28;20387;-73
2022/06/15 17:04:51;;;;;;;;;;;;;;;29.15;33.29;99155.13;8395641;28;19935;-73
2022/06/15 17:08:52;;;;;;;;;;;;;;;28.79;34.32;99154.53;8380762;28;19928;-73
2022/06/15 17:12:54;;;;;;;;;;;;;;;28.52;34.18;99152.31;8383109;28;19967;-73
2022/06/15 17:16:55;;;;;;;;;;;;;;;28.34;33.50;99156.50;8383451;28;19928;-73
2022/06/15 17:21:00;;;;;;;;;;;;;;;28.16;34.38;99149.94;8410040;28;20278;-73
2022/06/15 17:25:01;;;;;;;;;;;;;;;27.89;35.54;99148.53;8387508;28;19978;-73
2022/06/15 17:29:03;;;;;;;;;;;;;;;27.63;36.74;99152.38;8395016;28;19932;-73
2022/06/15 17:33:04;;;;;;;;;;;;;;;27.36;37.54;99145.56;8395610;28;19945;-73
2022/06/15 17:37:06;;;;;;;;;;;;;;;27.12;38.27;99142.13;8392576;28;20043;-74
2022/06/15 17:41:07;;;;;;;;;;;;;;;26.93;37.81;99139.97;8386714;28;20032;-73
2022/06/15 17:45:10;;;;;;;;;;;;;;;26.82;38.34;99145.25;8389965;28;19939;-73
2022/06/15 17:49:13;;;;;;;;;;;;;;;26.55;38.88;99142.81;8360678;28;19928;-73
2022/06/15 17:53:14;;;;;;;;;;;;;;;26.32;39.93;99152.47;8369768;28;19975;-73
2022/06/15 17:57:16;;;;;;;;;;;;;;;26.08;41.27;99152.44;8370314;28;19939;-73
2022/06/15 18:01:17;;;;;;;;;;;;;;;25.92;40.87;99143.84;8371047;28;19967;-74
2022/06/15 18:05:20;;;;;;;;;;;;;;;25.76;42.46;99140.59;8404809;28;19939;-74
2022/06/15 18:09:22;;;;;;;;;;;;;;;25.54;42.98;99150.03;8403212;28;19933;-74
2022/06/15 18:13:36;;;;;;;;;;;;;;;25.43;42.81;99141.94;8395527;28;19935;-74
2022/06/15 18:17:42;;;;;;;;;;;;;;;25.18;43.90;99147.25;8379097;28;19928;-74
2022/06/15 18:21:46;;;;;;;;;;;;;;;24.98;44.91;99138.81;8386940;28;20436;-74
2022/06/15 18:25:47;;;;;;;;;;;;;;;24.79;45.78;99141.00;8402482;28;19971;-74
2022/06/15 18:29:49;;;;;;;;;;;;;;;24.54;46.19;99143.56;8388278;28;19979;-74
2022/06/15 18:33:50;;;;;;;;;;;;;;;24.29;46.56;99153.13;8409738;27;19975;-73
2022/06/15 18:37:52;;;;;;;;;;;;;;;24.09;47.15;99148.22;8401616;28;19944;-73
2022/06/15 18:41:55;;;;;;;;;;;;;;;23.94;48.18;99154.47;8370493;28;19928;-73
2022/06/15 18:50:18;;;;;;;;;;;;;;;23.53;48.90;99147.28;8391559;28;19929;-74
2022/06/15 18:54:19;;;;;;;;;;;;;;;23.33;49.35;99159.06;8388134;28;19932;-74
2022/06/15 18:58:23;;;;;;;;;;;;;;;23.15;50.07;99155.72;8416999;27;20027;-75
2022/06/15 19:02:26;;;;;;;;;;;;;;;22.98;50.58;99155.91;8389435;28;20039;-74
2022/06/15 19:06:29;;;;;;;;;;;;;;;22.80;50.89;99159.56;8388467;28;19928;-75
2022/06/15 19:10:31;;;;;;;;;;;;;;;22.68;51.02;99161.13;8387364;28;19939;-74
2022/06/15 19:14:34;;;;;;;;;;;;;;;22.58;52.40;99168.75;8403063;28;19928;-74
2022/06/15 19:18:35;;;;;;;;;;;;;;;22.42;53.11;99167.03;8399156;28;19929;-74
2022/06/15 19:22:38;;;;;;;;;;;;;;;22.19;54.25;99173.63;8381394;28;20028;-74
2022/06/15 19:26:44;;;;;;;;;;;;;;;22.02;54.06;99161.31;8403758;28;19954;-74
2022/06/15 19:30:45;;;;;;;;;;;;;;;21.84;54.04;99165.78;8381530;28;20031;-74
2022/06/15 19:34:47;;;;;;;;;;;;;;;21.68;55.09;99164.91;8391540;28;19943;-74
2022/06/15 19:38:48;;;;;;;;;;;;;;;21.53;55.31;99171.84;8391309;28;19936;-74
2022/06/15 19:42:53;;;;;;;;;;;;;;;21.40;55.35;99174.31;8401227;28;19963;-73
2022/06/15 19:46:54;;;;;;;;;;;;;;;21.26;55.75;99182.09;8395757;28;20027;-73
2022/06/15 19:50:58;;;;;;;;;;;;;;;21.06;57.12;99187.50;8406672;28;20023;-73
2022/06/15 19:54:59;;;;;;;;;;;;;;;20.87;58.70;99184.06;8401283;28;19928;-73
2022/06/15 19:59:01;;;;;;;;;;;;;;;20.69;58.55;99183.19;8383285;28;20469;-73
2022/06/15 20:03:02;;;;;;;;;;;;;;;20.53;57.66;99193.63;8356026;28;20034;-73
2022/06/15 20:07:08;;;;;;;;;;;;;;;20.35;58.82;99195.34;8376700;28;20021;-73
2022/06/15 20:11:10;;;;;;;;;;;;;;;20.19;58.24;99199.63;8376903;28;21601;-73
2022/06/15 20:15:11;;;;;;;;;;;;;;;20.06;59.78;99195.81;8373488;28;19928;-73
2022/06/15 20:19:17;;;;;;;;;;;;;;;19.96;60.30;99211.22;8374672;28;20024;-73
2022/06/15 20:23:20;;;;;;;;;;;;;;;19.84;60.06;99212.63;8374272;28;20028;-73
2022/06/15 20:27:23;;;;;;;;;;;;;;;19.68;59.59;99213.38;8375952;28;19932;-73
2022/06/15 20:31:26;;;;;;;;;;;;;;;19.59;59.70;99210.25;8383404;28;20549;-73
2022/06/15 20:35:28;;;;;;;;;;;;;;;19.48;60.73;99208.94;8394898;28;20330;-72
2022/06/15 20:39:30;;;;;;;;;;;;;;;19.37;60.46;99214.66;8385599;28;19933;-72
2022/06/15 20:43:32;;;;;;;;;;;;;;;19.24;59.96;99214.34;8383197;28;19932;-72
2022/06/15 20:47:34;;;;;;;;;;;;;;;19.14;60.62;99217.44;8392421;28;19932;-73
2022/06/15 20:51:36;;;;;;;;;;;;;;;19.06;60.54;99209.03;8387618;28;19928;-73
2022/06/15 21:00:00;;;;;;;;;;;;;;;18.82;59.92;99205.59;8403250;28;19928;-72
2022/06/15 21:04:02;;;;;;;;;;;;;;;18.71;60.63;99214.81;8396396;28;20643;-73
2022/06/15 21:08:04;;;;;;;;;;;;;;;18.60;60.80;99221.38;8391001;28;19960;-76
2022/06/15 21:21:03;;;;;;;;;;;;;;;18.26;62.31;99224.44;8350016;28;20545;-73
2022/06/15 21:25:05;;;;;;;;;;;;;;;18.18;63.60;99223.91;8373251;28;20043;-73
2022/06/15 21:29:09;;;;;;;;;;;;;;;18.06;63.98;99222.59;8352253;28;20023;-73
2022/06/15 21:33:12;;;;;;;;;;;;;;;17.97;64.54;99221.16;8369140;28;20301;-73
2022/06/15 21:37:14;;;;;;;;;;;;;;;17.86;65.63;99223.31;8338239;28;20374;-76
2022/06/15 21:41:15;;;;;;;;;;;;;;;17.78;66.48;99231.50;8358896;28;19963;-77
2022/06/15 21:45:22;;;;;;;;;;;;;;;17.72;66.66;99230.84;8330367;28;19929;-76
2022/06/15 21:49:24;;;;;;;;;;;;;;;17.64;66.99;99222.38;8420228;28;19940;-76
2022/06/15 21:53:27;;;;;;;;;;;;;;;17.57;67.48;99223.47;8390903;28;20541;-77
2022/06/15 21:57:29;;;;;;;;;;;;;;;17.48;67.81;99222.03;8392856;28;19935;-77
2022/06/15 22:01:31;;;;;;;;;;;;;;;17.39;67.80;99224.97;8394090;28;20766;-77
2022/06/15 22:05:33;;;;;;;;;;;;;;;17.30;68.16;99227.94;8350655;28;19928;-76
2022/06/15 22:09:35;;;;;;;;;;;;;;;17.24;68.58;99238.66;8371496;28;19929;-77
2022/06/15 22:13:37;;;;;;;;;;;;;;;17.18;68.89;99234.44;8372270;28;20339;-77